Etusivu
METAR-TAF:

METAR-TAF

Lentoasemat :

Waco, Texas, Yhdysvallat

Leveyspiiri: 31-38-16N, Pituuspiiri: 097-04-27W, korkeus merenpinnasta: 143 m

Tämänhetkinen sää

Tämä raportti tehtiin 5 tuntia ja 55 minuuttia sitten, kello 04.55 UTC
tyyntä
Lämpötila 17°C
Kosteus 88%
Ilmanpaine 1015 hPa
Näkyvyys: 16.1 km
Hajanaisia pilviä 11000 ft:n korkeudessa

METAR: KCNW 060455Z 00000KT 10SM SCT110 17/15 A2996

Aika: 03:50 (10:50 UTC)


TAF: puuttuu

Säähavainnot ja -ennusteet yli 4000 lentoasemalta (METAR- ja TAF-raportit).

Käytössä olevat sääasemat on merkitty karttaan keltaisilla ja punaisilla pisteillä.

Aseta hiiri pisteen päälle nähdäksesi sääaseman nimen.

Klikkaa sitten nähdäksesi säähavainnot ja -ennusteet.

Kartan vaihtaminen: klikkaa mustalla rastilla varustettuja vihreitä pisteitä, niin voit zoomata sisään; viivalla varustettua vihreää pistettä, niin voit zoomata ulos tai vihreitä nuolia, niin pääset viereisille kartoille.


METAR-TAF: